createdAt,value
2022-08-16T00:14:00.099Z,2.15
2022-08-16T04:21:56.814Z,3.72
2022-08-16T04:27:34.597Z,7.05
2022-08-16T05:18:46.384Z,6.05
2022-08-16T05:21:14.012Z,5.43
2022-08-16T05:23:56.047Z,4.85
2022-08-16T05:26:28.013Z,4.40
2022-08-16T05:28:56.384Z,5.43
2022-08-16T05:31:24.279Z,6.90
2022-08-16T05:34:00.370Z,4.88
2022-08-16T05:36:34.255Z,7.43
2022-08-16T05:39:07.742Z,5.20
2022-08-16T05:41:45.399Z,4.30
2022-08-16T05:44:23.598Z,3.95
2022-08-16T05:46:56.137Z,3.65
2022-08-16T05:49:39.346Z,5.60
2022-08-16T05:52:11.637Z,4.75
2022-08-16T05:54:46.621Z,2.90
2022-08-16T05:57:15.632Z,4.00
2022-08-16T05:59:42.400Z,4.38
2022-08-16T06:02:09.994Z,3.53
2022-08-16T06:04:42.304Z,4.18
2022-08-16T06:07:26.364Z,4.60
2022-08-16T06:10:05.145Z,4.90
2022-08-16T06:12:34.836Z,3.85
2022-08-16T06:15:07.785Z,4.25
2022-08-16T06:17:42.950Z,4.75
2022-08-16T06:20:18.596Z,3.95
2022-08-16T06:23:02.798Z,3.28
2022-08-16T06:25:41.906Z,3.00
2022-08-16T06:28:16.703Z,3.22
2022-08-16T06:30:57.307Z,4.45
2022-08-16T06:33:24.167Z,4.05
2022-08-16T06:35:59.519Z,4.10
2022-08-16T06:38:33.587Z,3.78
2022-08-16T06:41:12.328Z,4.72
2022-08-16T06:43:41.951Z,4.20
2022-08-16T06:46:31.907Z,6.47
2022-08-16T06:49:05.199Z,4.68
2022-08-16T06:51:46.089Z,3.83
2022-08-16T06:54:18.969Z,4.03
2022-08-16T06:56:54.295Z,3.65
2022-08-16T06:59:25.586Z,4.85
2022-08-16T07:04:47.509Z,4.53
2022-08-16T07:07:22.318Z,3.85
2022-08-16T07:09:51.402Z,3.08
2022-08-16T07:12:21.346Z,6.40
2022-08-16T07:18:01.371Z,6.97
2022-08-16T07:26:26.676Z,6.60
2022-08-16T07:29:01.566Z,4.32
2022-08-16T07:34:19.174Z,3.65
2022-08-16T07:45:59.511Z,5.50
2022-08-16T08:06:24.881Z,4.47
2022-08-16T08:08:57.558Z,5.18
2022-08-16T08:14:29.830Z,4.35
2022-08-16T08:32:58.831Z,2.83
2022-08-16T08:58:26.022Z,4.70
2022-08-16T23:10:06.950Z,12.60
2022-08-16T23:12:34.229Z,9.80
2022-08-16T23:15:04.386Z,10.57
2022-08-16T23:17:33.493Z,9.52
2022-08-16T23:20:00.332Z,11.82
2022-08-16T23:22:27.108Z,10.10
2022-08-16T23:24:56.228Z,8.30
2022-08-16T23:27:25.910Z,10.38
2022-08-16T23:29:55.013Z,10.25
2022-08-16T23:32:23.665Z,11.07
2022-08-16T23:34:53.125Z,10.45
2022-08-16T23:37:23.700Z,11.63
2022-08-16T23:39:54.344Z,9.10
2022-08-16T23:45:33.637Z,10.15
2022-08-16T23:48:01.537Z,9.40
2022-08-16T23:50:31.304Z,8.82
2022-08-16T23:55:56.988Z,9.35
2022-08-16T23:58:26.955Z,9.35
